Huvudsida
METAR-TAF:

METAR-TAF

Flygplatser :

Jönköping Airport

Jönköping, Sverige

latitud: 57-46N, longitud: 014-05E, höjd: 226 m

Aktuellt väderrapport

Denna rapport gjordes för 14 minuter sedan, klockan 05:50 UTC
Vind 7 kt från syd
Temperatur 4°C
Fuktighet 93%
Tryck 1034 hPa
Sikt: 7000 m
Få moln på en höjd av 700 ft
fuktdis

METAR: ESGJ 160550Z 18007KT 7000 BR FEW007 04/03 Q1034

Tid: 07:04 (06:04 UTC)

Väderprognos

Denna rapport gjordes för 34 minuter sedan, klockan 05:30 UTC
Prognos gäller från 16 kl. 06 UTC till 16 kl. 15 UTC
Vind 8 kt från syd/sydväst
Sikt 10 km eller mer
Spridda moln på en höjd av 800 ft
Temporärt
från 16 kl. 06 UTC till 16 kl. 10 UTC
Brutna moln på en höjd av 800 ft

TAF: ESGJ 160530Z 1606/1615 20008KT 9999 SCT008 TEMPO 1606/1610 BKN008

Aktuella väderrapporter och prognoser från 4000 flygplatser (METAR- och TAF-rapporter).

De tillgängliga stationerna syns som gula och röda prickar på kartan.

För musen över prickarna för att se namnen på stationerna.

Klicka sedan för att få väderrapporter och prognoser.

För att ändra kartan: Klicka på de gröna knapparna med ett svart kors på för att zooma in; den gröna knappen med ett streck på för att zooma ut; eller på de gröna pilarna för angränsande kartor.


METAR-TAF: